sensor_id;sensor_type;location;lat;lon;timestamp;P1;durP1;ratioP1;P2;durP2;ratioP2
13683;SDS011;6914;53.552;9.908;2023-07-16T00:01:25;2.90;;;2.30;;
13683;SDS011;6914;53.552;9.908;2023-07-16T00:03:52;6.70;;;2.40;;
13683;SDS011;6914;53.552;9.908;2023-07-16T00:06:19;3.87;;;2.73;;
13683;SDS011;6914;53.552;9.908;2023-07-16T00:08:46;5.90;;;2.70;;
13683;SDS011;6914;53.552;9.908;2023-07-16T00:11:13;2.37;;;2.20;;
13683;SDS011;6914;53.552;9.908;2023-07-16T00:13:42;2.93;;;2.60;;
13683;SDS011;6914;53.552;9.908;2023-07-16T00:16:12;3.33;;;2.77;;
13683;SDS011;6914;53.552;9.908;2023-07-16T00:18:39;3.00;;;2.80;;
13683;SDS011;6914;53.552;9.908;2023-07-16T00:21:06;3.50;;;2.73;;
13683;SDS011;6914;53.552;9.908;2023-07-16T00:23:33;3.30;;;2.40;;
13683;SDS011;6914;53.552;9.908;2023-07-16T00:26:00;3.40;;;2.60;;
13683;SDS011;6914;53.552;9.908;2023-07-16T00:28:27;3.77;;;2.57;;
13683;SDS011;6914;53.552;9.908;2023-07-16T00:30:56;4.63;;;3.47;;
13683;SDS011;6914;53.552;9.908;2023-07-16T00:33:24;3.00;;;2.50;;
13683;SDS011;6914;53.552;9.908;2023-07-16T00:35:51;4.03;;;2.50;;
13683;SDS011;6914;53.552;9.908;2023-07-16T00:38:18;4.87;;;2.63;;
13683;SDS011;6914;53.552;9.908;2023-07-16T00:40:46;5.83;;;2.97;;
13683;SDS011;6914;53.552;9.908;2023-07-16T00:43:13;5.63;;;2.80;;
13683;SDS011;6914;53.552;9.908;2023-07-16T00:45:40;3.00;;;2.50;;
13683;SDS011;6914;53.552;9.908;2023-07-16T00:48:09;2.90;;;2.50;;
13683;SDS011;6914;53.552;9.908;2023-07-16T00:50:37;3.93;;;2.90;;
13683;SDS011;6914;53.552;9.908;2023-07-16T00:53:05;4.80;;;2.27;;
13683;SDS011;6914;53.552;9.908;2023-07-16T00:55:32;2.83;;;2.43;;
13683;SDS011;6914;53.552;9.908;2023-07-16T00:58:04;2.67;;;2.50;;
13683;SDS011;6914;53.552;9.908;2023-07-16T01:00:31;2.73;;;2.20;;
13683;SDS011;6914;53.552;9.908;2023-07-16T01:03:00;6.53;;;2.63;;
13683;SDS011;6914;53.552;9.908;2023-07-16T01:05:31;4.73;;;2.67;;
13683;SDS011;6914;53.552;9.908;2023-07-16T01:08:03;4.30;;;2.83;;
13683;SDS011;6914;53.552;9.908;2023-07-16T01:10:31;3.00;;;2.50;;
13683;SDS011;6914;53.552;9.908;2023-07-16T01:12:58;2.57;;;2.20;;
13683;SDS011;6914;53.552;9.908;2023-07-16T01:15:25;2.50;;;2.40;;
13683;SDS011;6914;53.552;9.908;2023-07-16T01:17:52;2.50;;;2.30;;
13683;SDS011;6914;53.552;9.908;2023-07-16T01:20:19;2.93;;;2.73;;
13683;SDS011;6914;53.552;9.908;2023-07-16T01:22:59;5.73;;;2.70;;
13683;SDS011;6914;53.552;9.908;2023-07-16T01:25:35;2.93;;;2.60;;
13683;SDS011;6914;53.552;9.908;2023-07-16T01:28:11;2.93;;;2.43;;
13683;SDS011;6914;53.552;9.908;2023-07-16T01:30:45;2.40;;;2.13;;
13683;SDS011;6914;53.552;9.908;2023-07-16T01:33:13;3.93;;;2.53;;
13683;SDS011;6914;53.552;9.908;2023-07-16T01:35:41;3.40;;;2.20;;
13683;SDS011;6914;53.552;9.908;2023-07-16T01:38:09;2.70;;;2.43;;
13683;SDS011;6914;53.552;9.908;2023-07-16T01:40:37;10.30;;;2.43;;
13683;SDS011;6914;53.552;9.908;2023-07-16T01:43:04;2.87;;;2.13;;
13683;SDS011;6914;53.552;9.908;2023-07-16T01:45:31;4.07;;;2.30;;
13683;SDS011;6914;53.552;9.908;2023-07-16T01:48:01;4.07;;;2.70;;
13683;SDS011;6914;53.552;9.908;2023-07-16T01:50:31;2.80;;;2.23;;
13683;SDS011;6914;53.552;9.908;2023-07-16T01:52:58;2.43;;;2.23;;
13683;SDS011;6914;53.552;9.908;2023-07-16T01:55:25;3.07;;;1.80;;
13683;SDS011;6914;53.552;9.908;2023-07-16T01:57:52;3.10;;;2.37;;
13683;SDS011;6914;53.552;9.908;2023-07-16T02:00:19;2.07;;;1.80;;
13683;SDS011;6914;53.552;9.908;2023-07-16T02:02:47;5.13;;;3.00;;
13683;SDS011;6914;53.552;9.908;2023-07-16T02:05:16;2.27;;;2.07;;
13683;SDS011;6914;53.552;9.908;2023-07-16T02:07:43;7.87;;;2.30;;
13683;SDS011;6914;53.552;9.908;2023-07-16T02:10:10;6.70;;;2.40;;
13683;SDS011;6914;53.552;9.908;2023-07-16T02:12:37;9.80;;;2.43;;
13683;SDS011;6914;53.552;9.908;2023-07-16T02:15:04;3.03;;;2.10;;
13683;SDS011;6914;53.552;9.908;2023-07-16T02:17:32;2.37;;;2.03;;
13683;SDS011;6914;53.552;9.908;2023-07-16T02:19:59;2.80;;;2.60;;
13683;SDS011;6914;53.552;9.908;2023-07-16T02:22:28;4.07;;;1.90;;
13683;SDS011;6914;53.552;9.908;2023-07-16T02:24:55;3.40;;;2.20;;
13683;SDS011;6914;53.552;9.908;2023-07-16T02:27:22;3.57;;;2.33;;
13683;SDS011;6914;53.552;9.908;2023-07-16T02:29:50;3.87;;;2.10;;
13683;SDS011;6914;53.552;9.908;2023-07-16T02:32:17;5.77;;;2.40;;
13683;SDS011;6914;53.552;9.908;2023-07-16T02:34:44;4.80;;;2.03;;
13683;SDS011;6914;53.552;9.908;2023-07-16T02:37:11;2.90;;;1.90;;
13683;SDS011;6914;53.552;9.908;2023-07-16T02:39:40;2.43;;;2.00;;
13683;SDS011;6914;53.552;9.908;2023-07-16T02:42:08;1.93;;;1.80;;
13683;SDS011;6914;53.552;9.908;2023-07-16T02:44:35;8.13;;;2.53;;
13683;SDS011;6914;53.552;9.908;2023-07-16T02:47:07;3.37;;;1.90;;
13683;SDS011;6914;53.552;9.908;2023-07-16T02:49:34;8.83;;;2.47;;
13683;SDS011;6914;53.552;9.908;2023-07-16T02:52:01;2.97;;;1.87;;
13683;SDS011;6914;53.552;9.908;2023-07-16T02:54:28;3.10;;;1.90;;
13683;SDS011;6914;53.552;9.908;2023-07-16T02:56:57;4.10;;;2.30;;
13683;SDS011;6914;53.552;9.908;2023-07-16T02:59:24;5.47;;;2.60;;
13683;SDS011;6914;53.552;9.908;2023-07-16T03:01:51;3.00;;;2.67;;
13683;SDS011;6914;53.552;9.908;2023-07-16T03:04:18;3.10;;;2.83;;
13683;SDS011;6914;53.552;9.908;2023-07-16T03:06:46;2.23;;;1.90;;
13683;SDS011;6914;53.552;9.908;2023-07-16T03:09:13;5.30;;;2.20;;
13683;SDS011;6914;53.552;9.908;2023-07-16T03:11:40;6.83;;;2.20;;
13683;SDS011;6914;53.552;9.908;2023-07-16T03:14:09;4.07;;;2.70;;
13683;SDS011;6914;53.552;9.908;2023-07-16T03:16:36;4.23;;;2.73;;
13683;SDS011;6914;53.552;9.908;2023-07-16T03:19:03;6.87;;;2.77;;
13683;SDS011;6914;53.552;9.908;2023-07-16T03:21:31;3.13;;;2.30;;
13683;SDS011;6914;53.552;9.908;2023-07-16T03:24:12;5.70;;;2.50;;
13683;SDS011;6914;53.552;9.908;2023-07-16T03:26:41;3.70;;;3.03;;
13683;SDS011;6914;53.552;9.908;2023-07-16T03:29:10;2.63;;;2.40;;
13683;SDS011;6914;53.552;9.908;2023-07-16T03:31:37;6.53;;;2.40;;
13683;SDS011;6914;53.552;9.908;2023-07-16T03:34:06;6.80;;;2.67;;
13683;SDS011;6914;53.552;9.908;2023-07-16T03:36:34;7.63;;;2.97;;
13683;SDS011;6914;53.552;9.908;2023-07-16T03:39:01;6.30;;;3.13;;
13683;SDS011;6914;53.552;9.908;2023-07-16T03:41:27;5.17;;;3.00;;
13683;SDS011;6914;53.552;9.908;2023-07-16T03:43:55;2.80;;;2.60;;
13683;SDS011;6914;53.552;9.908;2023-07-16T03:46:23;4.03;;;2.60;;
13683;SDS011;6914;53.552;9.908;2023-07-16T03:48:50;5.53;;;2.17;;
13683;SDS011;6914;53.552;9.908;2023-07-16T03:51:17;2.63;;;2.40;;
13683;SDS011;6914;53.552;9.908;2023-07-16T03:53:44;4.13;;;2.70;;
13683;SDS011;6914;53.552;9.908;2023-07-16T03:56:12;8.70;;;2.77;;
13683;SDS011;6914;53.552;9.908;2023-07-16T03:58:39;5.13;;;3.10;;
13683;SDS011;6914;53.552;9.908;2023-07-16T04:01:06;5.17;;;3.17;;
13683;SDS011;6914;53.552;9.908;2023-07-16T04:03:34;4.73;;;2.47;;
13683;SDS011;6914;53.552;9.908;2023-07-16T04:06:02;2.73;;;2.53;;
13683;SDS011;6914;53.552;9.908;2023-07-16T04:08:29;1.83;;;1.73;;
13683;SDS011;6914;53.552;9.908;2023-07-16T04:10:56;4.80;;;2.67;;
13683;SDS011;6914;53.552;9.908;2023-07-16T04:13:23;4.23;;;2.87;;
13683;SDS011;6914;53.552;9.908;2023-07-16T04:15:51;8.70;;;3.07;;
13683;SDS011;6914;53.552;9.908;2023-07-16T04:18:21;8.60;;;3.13;;
13683;SDS011;6914;53.552;9.908;2023-07-16T04:20:49;3.10;;;2.77;;
13683;SDS011;6914;53.552;9.908;2023-07-16T04:23:16;3.53;;;2.23;;
13683;SDS011;6914;53.552;9.908;2023-07-16T04:25:43;2.80;;;2.60;;
13683;SDS011;6914;53.552;9.908;2023-07-16T04:28:11;3.73;;;2.80;;
13683;SDS011;6914;53.552;9.908;2023-07-16T04:30:38;3.23;;;3.03;;
13683;SDS011;6914;53.552;9.908;2023-07-16T04:33:05;5.13;;;2.47;;
13683;SDS011;6914;53.552;9.908;2023-07-16T04:35:33;7.53;;;2.93;;
13683;SDS011;6914;53.552;9.908;2023-07-16T04:38:01;5.87;;;3.00;;
13683;SDS011;6914;53.552;9.908;2023-07-16T04:40:28;3.30;;;3.00;;
13683;SDS011;6914;53.552;9.908;2023-07-16T04:42:55;4.23;;;2.60;;
13683;SDS011;6914;53.552;9.908;2023-07-16T04:45:23;3.73;;;3.43;;
13683;SDS011;6914;53.552;9.908;2023-07-16T04:47:50;12.30;;;3.37;;
13683;SDS011;6914;53.552;9.908;2023-07-16T04:50:17;6.47;;;2.90;;
13683;SDS011;6914;53.552;9.908;2023-07-16T04:52:44;9.17;;;2.70;;
13683;SDS011;6914;53.552;9.908;2023-07-16T04:55:13;7.70;;;3.10;;
13683;SDS011;6914;53.552;9.908;2023-07-16T04:57:40;2.60;;;2.40;;
13683;SDS011;6914;53.552;9.908;2023-07-16T05:00:08;4.03;;;2.47;;
13683;SDS011;6914;53.552;9.908;2023-07-16T05:02:35;3.73;;;2.67;;
13683;SDS011;6914;53.552;9.908;2023-07-16T05:05:02;3.70;;;3.40;;
13683;SDS011;6914;53.552;9.908;2023-07-16T05:07:29;7.03;;;2.23;;
13683;SDS011;6914;53.552;9.908;2023-07-16T05:09:56;4.07;;;2.20;;
13683;SDS011;6914;53.552;9.908;2023-07-16T05:12:25;4.27;;;2.20;;
13683;SDS011;6914;53.552;9.908;2023-07-16T05:14:52;6.10;;;2.87;;
13683;SDS011;6914;53.552;9.908;2023-07-16T05:17:19;6.10;;;3.27;;
13683;SDS011;6914;53.552;9.908;2023-07-16T05:19:46;4.00;;;2.27;;
13683;SDS011;6914;53.552;9.908;2023-07-16T05:22:13;5.10;;;2.37;;
13683;SDS011;6914;53.552;9.908;2023-07-16T05:24:40;3.07;;;2.57;;
13683;SDS011;6914;53.552;9.908;2023-07-16T05:27:08;4.90;;;2.10;;
13683;SDS011;6914;53.552;9.908;2023-07-16T05:29:37;6.10;;;2.40;;
13683;SDS011;6914;53.552;9.908;2023-07-16T05:32:04;16.90;;;2.83;;
13683;SDS011;6914;53.552;9.908;2023-07-16T05:34:31;9.07;;;2.90;;
13683;SDS011;6914;53.552;9.908;2023-07-16T05:36:58;7.53;;;2.60;;
13683;SDS011;6914;53.552;9.908;2023-07-16T05:39:26;9.30;;;2.93;;
13683;SDS011;6914;53.552;9.908;2023-07-16T05:41:53;5.90;;;2.80;;
13683;SDS011;6914;53.552;9.908;2023-07-16T05:44:20;2.67;;;2.20;;
13683;SDS011;6914;53.552;9.908;2023-07-16T05:46:48;7.47;;;2.60;;
13683;SDS011;6914;53.552;9.908;2023-07-16T05:49:15;4.77;;;2.90;;
13683;SDS011;6914;53.552;9.908;2023-07-16T05:51:43;8.93;;;2.40;;
13683;SDS011;6914;53.552;9.908;2023-07-16T05:54:10;13.63;;;3.70;;
13683;SDS011;6914;53.552;9.908;2023-07-16T05:56:37;6.70;;;2.37;;
13683;SDS011;6914;53.552;9.908;2023-07-16T05:59:04;8.63;;;2.93;;
13683;SDS011;6914;53.552;9.908;2023-07-16T06:01:31;6.93;;;2.80;;
13683;SDS011;6914;53.552;9.908;2023-07-16T06:04:00;3.83;;;2.47;;
13683;SDS011;6914;53.552;9.908;2023-07-16T06:06:27;3.53;;;3.23;;
13683;SDS011;6914;53.552;9.908;2023-07-16T06:08:55;5.00;;;2.60;;
13683;SDS011;6914;53.552;9.908;2023-07-16T06:11:22;8.67;;;3.10;;
13683;SDS011;6914;53.552;9.908;2023-07-16T06:13:49;5.60;;;2.40;;
13683;SDS011;6914;53.552;9.908;2023-07-16T06:16:16;5.73;;;2.83;;
13683;SDS011;6914;53.552;9.908;2023-07-16T06:18:43;5.57;;;2.57;;
13683;SDS011;6914;53.552;9.908;2023-07-16T06:21:12;5.43;;;2.50;;
13683;SDS011;6914;53.552;9.908;2023-07-16T06:23:39;4.70;;;2.43;;
13683;SDS011;6914;53.552;9.908;2023-07-16T06:26:07;17.63;;;3.33;;
13683;SDS011;6914;53.552;9.908;2023-07-16T06:28:34;11.10;;;2.67;;
13683;SDS011;6914;53.552;9.908;2023-07-16T06:31:01;12.03;;;2.97;;
13683;SDS011;6914;53.552;9.908;2023-07-16T06:33:28;5.10;;;2.53;;
13683;SDS011;6914;53.552;9.908;2023-07-16T06:35:55;8.60;;;3.23;;
13683;SDS011;6914;53.552;9.908;2023-07-16T06:38:23;7.87;;;3.60;;
13683;SDS011;6914;53.552;9.908;2023-07-16T06:40:51;4.73;;;3.37;;
13683;SDS011;6914;53.552;9.908;2023-07-16T06:43:19;7.43;;;3.60;;
13683;SDS011;6914;53.552;9.908;2023-07-16T06:45:48;5.90;;;2.77;;
13683;SDS011;6914;53.552;9.908;2023-07-16T06:48:15;4.00;;;2.93;;
13683;SDS011;6914;53.552;9.908;2023-07-16T06:50:43;12.13;;;4.00;;
13683;SDS011;6914;53.552;9.908;2023-07-16T06:53:10;7.30;;;3.00;;
13683;SDS011;6914;53.552;9.908;2023-07-16T06:55:38;14.83;;;4.00;;
13683;SDS011;6914;53.552;9.908;2023-07-16T06:58:09;6.93;;;3.47;;
13683;SDS011;6914;53.552;9.908;2023-07-16T07:00:37;7.13;;;3.00;;
13683;SDS011;6914;53.552;9.908;2023-07-16T07:03:04;6.70;;;3.27;;
13683;SDS011;6914;53.552;9.908;2023-07-16T07:05:31;8.73;;;3.73;;
13683;SDS011;6914;53.552;9.908;2023-07-16T07:08:01;6.60;;;3.30;;
13683;SDS011;6914;53.552;9.908;2023-07-16T07:10:28;5.10;;;3.53;;
13683;SDS011;6914;53.552;9.908;2023-07-16T07:12:56;7.00;;;3.47;;
13683;SDS011;6914;53.552;9.908;2023-07-16T07:15:23;22.53;;;4.43;;
13683;SDS011;6914;53.552;9.908;2023-07-16T07:17:50;6.20;;;3.17;;
13683;SDS011;6914;53.552;9.908;2023-07-16T07:20:18;7.23;;;3.90;;
13683;SDS011;6914;53.552;9.908;2023-07-16T07:22:45;8.20;;;4.00;;
13683;SDS011;6914;53.552;9.908;2023-07-16T07:25:12;8.33;;;3.50;;
13683;SDS011;6914;53.552;9.908;2023-07-16T07:27:39;8.97;;;3.67;;
13683;SDS011;6914;53.552;9.908;2023-07-16T07:30:08;7.10;;;3.20;;
13683;SDS011;6914;53.552;9.908;2023-07-16T07:32:36;8.60;;;4.23;;
13683;SDS011;6914;53.552;9.908;2023-07-16T07:35:04;14.40;;;3.60;;
13683;SDS011;6914;53.552;9.908;2023-07-16T07:37:31;20.23;;;4.00;;
13683;SDS011;6914;53.552;9.908;2023-07-16T07:39:59;8.00;;;3.53;;
13683;SDS011;6914;53.552;9.908;2023-07-16T07:42:26;26.17;;;3.80;;
13683;SDS011;6914;53.552;9.908;2023-07-16T07:44:53;7.97;;;3.60;;
13683;SDS011;6914;53.552;9.908;2023-07-16T07:47:22;8.70;;;3.27;;
13683;SDS011;6914;53.552;9.908;2023-07-16T07:49:49;6.87;;;3.10;;
13683;SDS011;6914;53.552;9.908;2023-07-16T07:52:16;10.80;;;3.30;;
13683;SDS011;6914;53.552;9.908;2023-07-16T07:54:43;8.27;;;3.50;;
13683;SDS011;6914;53.552;9.908;2023-07-16T07:57:10;14.00;;;3.53;;
13683;SDS011;6914;53.552;9.908;2023-07-16T07:59:37;8.47;;;3.23;;
13683;SDS011;6914;53.552;9.908;2023-07-16T08:02:05;14.70;;;2.90;;
13683;SDS011;6914;53.552;9.908;2023-07-16T08:04:33;10.20;;;2.40;;
13683;SDS011;6914;53.552;9.908;2023-07-16T08:07:00;9.93;;;3.27;;
13683;SDS011;6914;53.552;9.908;2023-07-16T08:09:28;10.57;;;2.87;;
13683;SDS011;6914;53.552;9.908;2023-07-16T08:11:55;8.10;;;2.80;;
13683;SDS011;6914;53.552;9.908;2023-07-16T08:14:22;9.13;;;3.03;;
13683;SDS011;6914;53.552;9.908;2023-07-16T08:16:49;4.10;;;2.97;;
13683;SDS011;6914;53.552;9.908;2023-07-16T08:19:16;4.87;;;2.47;;
13683;SDS011;6914;53.552;9.908;2023-07-16T08:21:47;4.83;;;2.40;;
13683;SDS011;6914;53.552;9.908;2023-07-16T08:24:16;6.43;;;2.50;;
13683;SDS011;6914;53.552;9.908;2023-07-16T08:26:43;3.07;;;2.27;;
13683;SDS011;6914;53.552;9.908;2023-07-16T08:29:10;9.13;;;2.80;;
13683;SDS011;6914;53.552;9.908;2023-07-16T08:31:37;6.87;;;2.93;;
13683;SDS011;6914;53.552;9.908;2023-07-16T08:34:05;9.83;;;4.10;;
13683;SDS011;6914;53.552;9.908;2023-07-16T08:36:32;6.97;;;2.73;;
13683;SDS011;6914;53.552;9.908;2023-07-16T08:39:01;9.23;;;3.17;;
13683;SDS011;6914;53.552;9.908;2023-07-16T08:41:28;7.63;;;2.80;;
13683;SDS011;6914;53.552;9.908;2023-07-16T08:43:55;6.50;;;2.73;;
13683;SDS011;6914;53.552;9.908;2023-07-16T08:46:23;5.93;;;3.40;;
13683;SDS011;6914;53.552;9.908;2023-07-16T08:48:50;5.70;;;3.20;;
13683;SDS011;6914;53.552;9.908;2023-07-16T08:51:18;4.33;;;4.03;;
13683;SDS011;6914;53.552;9.908;2023-07-16T08:53:48;3.80;;;3.50;;
13683;SDS011;6914;53.552;9.908;2023-07-16T08:56:16;4.13;;;3.70;;
13683;SDS011;6914;53.552;9.908;2023-07-16T08:58:44;4.70;;;3.80;;
13683;SDS011;6914;53.552;9.908;2023-07-16T09:01:11;11.10;;;4.73;;
13683;SDS011;6914;53.552;9.908;2023-07-16T09:03:38;5.40;;;3.93;;
13683;SDS011;6914;53.552;9.908;2023-07-16T09:06:06;8.27;;;4.60;;
13683;SDS011;6914;53.552;9.908;2023-07-16T09:08:34;7.57;;;4.90;;
13683;SDS011;6914;53.552;9.908;2023-07-16T09:11:01;5.40;;;4.00;;
13683;SDS011;6914;53.552;9.908;2023-07-16T09:13:30;4.80;;;4.40;;
13683;SDS011;6914;53.552;9.908;2023-07-16T09:15:57;5.70;;;4.63;;
13683;SDS011;6914;53.552;9.908;2023-07-16T09:18:25;7.53;;;4.97;;
13683;SDS011;6914;53.552;9.908;2023-07-16T09:20:54;4.63;;;4.20;;
13683;SDS011;6914;53.552;9.908;2023-07-16T09:23:23;13.20;;;4.53;;
13683;SDS011;6914;53.552;9.908;2023-07-16T09:25:50;11.43;;;4.50;;
13683;SDS011;6914;53.552;9.908;2023-07-16T09:28:18;15.73;;;4.17;;
13683;SDS011;6914;53.552;9.908;2023-07-16T09:30:47;5.50;;;4.40;;
13683;SDS011;6914;53.552;9.908;2023-07-16T09:33:14;8.10;;;4.50;;
13683;SDS011;6914;53.552;9.908;2023-07-16T09:35:42;11.70;;;4.70;;
13683;SDS011;6914;53.552;9.908;2023-07-16T09:38:09;7.43;;;4.63;;
13683;SDS011;6914;53.552;9.908;2023-07-16T09:40:36;5.20;;;4.00;;
13683;SDS011;6914;53.552;9.908;2023-07-16T09:43:04;12.53;;;4.53;;
13683;SDS011;6914;53.552;9.908;2023-07-16T09:45:32;5.13;;;4.63;;
13683;SDS011;6914;53.552;9.908;2023-07-16T09:48:01;4.50;;;4.13;;
13683;SDS011;6914;53.552;9.908;2023-07-16T09:50:28;9.67;;;4.43;;
13683;SDS011;6914;53.552;9.908;2023-07-16T09:52:56;5.10;;;4.67;;
13683;SDS011;6914;53.552;9.908;2023-07-16T09:55:24;6.63;;;4.33;;
13683;SDS011;6914;53.552;9.908;2023-07-16T09:57:54;6.50;;;4.80;;
13683;SDS011;6914;53.552;9.908;2023-07-16T10:00:22;5.97;;;4.83;;
13683;SDS011;6914;53.552;9.908;2023-07-16T10:02:50;5.80;;;5.30;;
13683;SDS011;6914;53.552;9.908;2023-07-16T10:05:23;5.10;;;4.53;;
13683;SDS011;6914;53.552;9.908;2023-07-16T10:07:51;4.77;;;4.37;;
13683;SDS011;6914;53.552;9.908;2023-07-16T10:10:19;9.50;;;4.43;;
13683;SDS011;6914;53.552;9.908;2023-07-16T10:12:54;4.73;;;4.40;;
13683;SDS011;6914;53.552;9.908;2023-07-16T10:15:24;5.50;;;4.80;;
13683;SDS011;6914;53.552;9.908;2023-07-16T10:17:52;17.47;;;5.20;;
13683;SDS011;6914;53.552;9.908;2023-07-16T10:20:29;5.83;;;3.93;;
13683;SDS011;6914;53.552;9.908;2023-07-16T10:22:56;10.33;;;4.40;;
13683;SDS011;6914;53.552;9.908;2023-07-16T10:25:25;9.07;;;4.03;;
13683;SDS011;6914;53.552;9.908;2023-07-16T10:27:53;13.83;;;4.77;;
13683;SDS011;6914;53.552;9.908;2023-07-16T10:30:20;4.50;;;3.73;;
13683;SDS011;6914;53.552;9.908;2023-07-16T10:32:51;4.03;;;3.63;;
13683;SDS011;6914;53.552;9.908;2023-07-16T10:35:19;8.17;;;3.50;;
13683;SDS011;6914;53.552;9.908;2023-07-16T10:37:47;5.37;;;3.27;;
13683;SDS011;6914;53.552;9.908;2023-07-16T10:40:14;4.50;;;3.67;;
13683;SDS011;6914;53.552;9.908;2023-07-16T10:42:42;13.03;;;3.87;;
13683;SDS011;6914;53.552;9.908;2023-07-16T10:45:12;3.93;;;3.43;;
13683;SDS011;6914;53.552;9.908;2023-07-16T10:47:40;11.80;;;3.90;;
13683;SDS011;6914;53.552;9.908;2023-07-16T10:50:08;8.13;;;4.13;;
13683;SDS011;6914;53.552;9.908;2023-07-16T10:52:35;4.27;;;3.90;;
13683;SDS011;6914;53.552;9.908;2023-07-16T10:55:05;14.03;;;5.17;;
13683;SDS011;6914;53.552;9.908;2023-07-16T10:57:32;4.30;;;4.00;;
13683;SDS011;6914;53.552;9.908;2023-07-16T10:59:59;5.33;;;4.30;;
13683;SDS011;6914;53.552;9.908;2023-07-16T11:02:27;4.67;;;4.10;;
13683;SDS011;6914;53.552;9.908;2023-07-16T11:04:54;5.90;;;3.53;;
13683;SDS011;6914;53.552;9.908;2023-07-16T11:07:22;9.43;;;4.07;;
13683;SDS011;6914;53.552;9.908;2023-07-16T11:09:49;11.03;;;4.03;;
13683;SDS011;6914;53.552;9.908;2023-07-16T11:12:19;5.90;;;4.10;;
13683;SDS011;6914;53.552;9.908;2023-07-16T11:14:47;10.20;;;4.83;;
13683;SDS011;6914;53.552;9.908;2023-07-16T11:17:15;4.47;;;3.90;;
13683;SDS011;6914;53.552;9.908;2023-07-16T11:19:44;4.70;;;4.20;;
13683;SDS011;6914;53.552;9.908;2023-07-16T11:22:11;7.50;;;3.47;;
13683;SDS011;6914;53.552;9.908;2023-07-16T11:24:39;3.47;;;3.17;;
13683;SDS011;6914;53.552;9.908;2023-07-16T11:27:06;4.83;;;3.53;;
13683;SDS011;6914;53.552;9.908;2023-07-16T11:29:40;5.27;;;4.17;;
13683;SDS011;6914;53.552;9.908;2023-07-16T11:32:11;11.27;;;3.47;;
13683;SDS011;6914;53.552;9.908;2023-07-16T11:34:51;6.80;;;3.20;;
13683;SDS011;6914;53.552;9.908;2023-07-16T11:37:19;3.53;;;3.23;;
13683;SDS011;6914;53.552;9.908;2023-07-16T11:39:47;5.10;;;3.17;;
13683;SDS011;6914;53.552;9.908;2023-07-16T11:42:14;4.23;;;3.43;;
13683;SDS011;6914;53.552;9.908;2023-07-16T11:44:43;11.33;;;4.27;;
13683;SDS011;6914;53.552;9.908;2023-07-16T11:47:15;12.23;;;3.20;;
13683;SDS011;6914;53.552;9.908;2023-07-16T11:49:42;3.63;;;3.27;;
13683;SDS011;6914;53.552;9.908;2023-07-16T11:52:09;8.53;;;3.80;;
13683;SDS011;6914;53.552;9.908;2023-07-16T11:54:37;12.13;;;3.90;;
13683;SDS011;6914;53.552;9.908;2023-07-16T11:57:05;6.10;;;3.83;;
13683;SDS011;6914;53.552;9.908;2023-07-16T11:59:33;6.83;;;3.83;;
13683;SDS011;6914;53.552;9.908;2023-07-16T12:02:04;8.30;;;3.77;;
13683;SDS011;6914;53.552;9.908;2023-07-16T12:04:31;5.03;;;3.20;;
13683;SDS011;6914;53.552;9.908;2023-07-16T12:06:59;5.23;;;3.47;;
13683;SDS011;6914;53.552;9.908;2023-07-16T12:09:26;5.63;;;3.60;;
13683;SDS011;6914;53.552;9.908;2023-07-16T12:11:53;10.43;;;3.67;;
13683;SDS011;6914;53.552;9.908;2023-07-16T12:14:20;10.63;;;3.93;;
13683;SDS011;6914;53.552;9.908;2023-07-16T12:16:47;3.93;;;3.53;;
13683;SDS011;6914;53.552;9.908;2023-07-16T12:19:16;4.13;;;3.27;;
13683;SDS011;6914;53.552;9.908;2023-07-16T12:21:43;8.17;;;3.67;;
13683;SDS011;6914;53.552;9.908;2023-07-16T12:24:10;4.70;;;3.00;;
13683;SDS011;6914;53.552;9.908;2023-07-16T12:26:37;9.50;;;3.63;;
13683;SDS011;6914;53.552;9.908;2023-07-16T12:29:04;5.43;;;2.73;;
13683;SDS011;6914;53.552;9.908;2023-07-16T12:31:31;5.70;;;4.17;;
13683;SDS011;6914;53.552;9.908;2023-07-16T12:33:59;5.83;;;3.13;;
13683;SDS011;6914;53.552;9.908;2023-07-16T12:36:28;4.13;;;3.20;;
13683;SDS011;6914;53.552;9.908;2023-07-16T12:38:55;3.97;;;3.30;;
13683;SDS011;6914;53.552;9.908;2023-07-16T12:41:22;5.70;;;2.67;;
13683;SDS011;6914;53.552;9.908;2023-07-16T12:43:49;7.67;;;3.07;;
13683;SDS011;6914;53.552;9.908;2023-07-16T12:46:17;4.87;;;2.90;;
13683;SDS011;6914;53.552;9.908;2023-07-16T12:48:44;2.63;;;2.47;;
13683;SDS011;6914;53.552;9.908;2023-07-16T12:51:11;4.60;;;3.10;;
13683;SDS011;6914;53.552;9.908;2023-07-16T12:53:40;5.27;;;3.07;;
13683;SDS011;6914;53.552;9.908;2023-07-16T12:56:08;2.93;;;2.83;;
13683;SDS011;6914;53.552;9.908;2023-07-16T12:58:35;6.03;;;3.27;;
13683;SDS011;6914;53.552;9.908;2023-07-16T13:01:03;8.33;;;3.60;;
13683;SDS011;6914;53.552;9.908;2023-07-16T13:03:30;6.67;;;3.83;;
13683;SDS011;6914;53.552;9.908;2023-07-16T13:05:57;3.30;;;2.33;;
13683;SDS011;6914;53.552;9.908;2023-07-16T13:08:24;3.00;;;2.80;;
13683;SDS011;6914;53.552;9.908;2023-07-16T13:10:53;3.10;;;2.90;;
13683;SDS011;6914;53.552;9.908;2023-07-16T13:13:20;2.90;;;2.50;;
13683;SDS011;6914;53.552;9.908;2023-07-16T13:15:47;7.37;;;2.67;;
13683;SDS011;6914;53.552;9.908;2023-07-16T13:18:14;8.43;;;2.53;;
13683;SDS011;6914;53.552;9.908;2023-07-16T13:20:43;4.60;;;2.70;;
13683;SDS011;6914;53.552;9.908;2023-07-16T13:23:10;2.80;;;2.60;;
13683;SDS011;6914;53.552;9.908;2023-07-16T13:25:38;3.33;;;2.70;;
13683;SDS011;6914;53.552;9.908;2023-07-16T13:28:06;3.50;;;2.57;;
13683;SDS011;6914;53.552;9.908;2023-07-16T13:30:34;4.57;;;2.53;;
13683;SDS011;6914;53.552;9.908;2023-07-16T13:33:01;2.80;;;2.60;;
13683;SDS011;6914;53.552;9.908;2023-07-16T13:35:28;3.50;;;3.17;;
13683;SDS011;6914;53.552;9.908;2023-07-16T13:37:55;4.30;;;2.83;;
13683;SDS011;6914;53.552;9.908;2023-07-16T13:40:22;2.90;;;2.70;;
13683;SDS011;6914;53.552;9.908;2023-07-16T13:42:49;3.43;;;3.10;;
13683;SDS011;6914;53.552;9.908;2023-07-16T13:45:19;2.90;;;2.60;;
13683;SDS011;6914;53.552;9.908;2023-07-16T13:47:46;5.17;;;2.60;;
13683;SDS011;6914;53.552;9.908;2023-07-16T13:50:13;2.80;;;2.60;;
13683;SDS011;6914;53.552;9.908;2023-07-16T13:52:41;3.30;;;3.00;;
13683;SDS011;6914;53.552;9.908;2023-07-16T13:55:08;3.83;;;2.87;;
13683;SDS011;6914;53.552;9.908;2023-07-16T13:57:35;3.57;;;2.50;;
13683;SDS011;6914;53.552;9.908;2023-07-16T14:00:03;5.07;;;3.30;;
13683;SDS011;6914;53.552;9.908;2023-07-16T14:02:32;3.17;;;2.97;;
13683;SDS011;6914;53.552;9.908;2023-07-16T14:04:59;7.43;;;3.83;;
13683;SDS011;6914;53.552;9.908;2023-07-16T14:07:26;5.20;;;3.50;;
13683;SDS011;6914;53.552;9.908;2023-07-16T14:09:53;3.83;;;2.87;;
13683;SDS011;6914;53.552;9.908;2023-07-16T14:12:21;3.63;;;2.70;;
13683;SDS011;6914;53.552;9.908;2023-07-16T14:14:48;3.67;;;3.37;;
13683;SDS011;6914;53.552;9.908;2023-07-16T14:17:15;3.83;;;3.17;;
13683;SDS011;6914;53.552;9.908;2023-07-16T14:19:43;6.07;;;3.20;;
13683;SDS011;6914;53.552;9.908;2023-07-16T14:22:11;5.87;;;3.67;;
13683;SDS011;6914;53.552;9.908;2023-07-16T14:24:38;3.50;;;3.30;;
13683;SDS011;6914;53.552;9.908;2023-07-16T14:27:06;14.47;;;3.43;;
13683;SDS011;6914;53.552;9.908;2023-07-16T14:29:33;2.90;;;2.70;;
13683;SDS011;6914;53.552;9.908;2023-07-16T14:32:00;6.00;;;3.10;;
13683;SDS011;6914;53.552;9.908;2023-07-16T14:34:27;3.40;;;3.20;;
13683;SDS011;6914;53.552;9.908;2023-07-16T14:36:56;3.33;;;3.03;;
13683;SDS011;6914;53.552;9.908;2023-07-16T14:39:23;4.60;;;3.20;;
13683;SDS011;6914;53.552;9.908;2023-07-16T14:41:50;6.20;;;3.40;;
13683;SDS011;6914;53.552;9.908;2023-07-16T14:44:17;6.87;;;4.27;;
13683;SDS011;6914;53.552;9.908;2023-07-16T14:46:45;5.47;;;3.10;;
13683;SDS011;6914;53.552;9.908;2023-07-16T14:49:12;6.00;;;3.23;;
13683;SDS011;6914;53.552;9.908;2023-07-16T14:51:39;4.80;;;3.50;;
13683;SDS011;6914;53.552;9.908;2023-07-16T14:54:09;4.87;;;3.10;;
13683;SDS011;6914;53.552;9.908;2023-07-16T14:56:36;6.83;;;3.60;;
13683;SDS011;6914;53.552;9.908;2023-07-16T14:59:03;4.50;;;3.33;;
13683;SDS011;6914;53.552;9.908;2023-07-16T15:01:31;16.50;;;3.40;;
13683;SDS011;6914;53.552;9.908;2023-07-16T15:03:58;7.33;;;3.40;;